Time;durP1;ratioP1;P1;durP2;ratioP2;P2;SDS_P1;SDS_P2;PMS_P1;PMS_P2;Temp;Humidity;BMP_temperature;BMP_pressure;BME280_temperature;BME280_humidity;BME280_pressure;Samples;Min_cycle;Max_cycle;Signal;HPM_P1;HPM_P2
2024/01/05 00:00:40;;;;;;;5.33;3.10;;;8.60;39.20;;;;;;10353578;28;20254;-75
2024/01/05 00:05:43;;;;;;;4.30;3.53;;;8.60;39.10;;;;;;10350656;28;20231;-75
2024/01/05 00:10:46;;;;;;;3.33;3.03;;;8.60;39.10;;;;;;10350903;28;20234;-75
2024/01/05 00:15:51;;;;;;;4.23;3.23;;;8.50;39.00;;;;;;10349662;28;20419;-75
2024/01/05 00:20:54;;;;;;;5.47;3.10;;;8.50;39.50;;;;;;10348693;28;20244;-75
2024/01/05 00:25:57;;;;;;;4.70;3.10;;;8.50;38.90;;;;;;10339868;28;20233;-75
2024/01/05 00:31:02;;;;;;;3.73;3.20;;;8.50;39.00;;;;;;10348964;28;20776;-75
2024/01/05 00:36:06;;;;;;;3.90;3.50;;;8.50;39.10;;;;;;10346898;28;20227;-75
2024/01/05 00:41:09;;;;;;;4.87;3.20;;;8.50;39.00;;;;;;10346818;28;20242;-75
2024/01/05 00:46:14;;;;;;;4.53;3.10;;;8.40;38.80;;;;;;10351319;28;20223;-75
2024/01/05 00:51:17;;;;;;;5.07;4.07;;;8.40;38.90;;;;;;10345872;28;20309;-75
2024/01/05 00:56:21;;;;;;;6.77;5.50;;;8.30;38.80;;;;;;10347117;28;20233;-75
2024/01/05 01:01:26;;;;;;;12.57;10.00;;;8.20;38.90;;;;;;10349842;28;20238;-75
2024/01/05 01:06:29;;;;;;;7.13;4.90;;;8.10;39.30;;;;;;10347706;28;20713;-75
2024/01/05 01:11:32;;;;;;;4.43;3.77;;;8.00;39.30;;;;;;10346750;28;20586;-75
2024/01/05 01:16:37;;;;;;;3.87;3.47;;;7.90;39.20;;;;;;10345937;28;20323;-75
2024/01/05 01:21:40;;;;;;;5.53;4.23;;;7.80;39.40;;;;;;10348371;28;20251;-75
2024/01/05 01:26:43;;;;;;;7.37;4.50;;;7.90;39.20;;;;;;10346993;28;20289;-75
2024/01/05 01:31:48;;;;;;;4.60;4.10;;;7.90;39.20;;;;;;10346727;28;20241;-75
2024/01/05 01:36:52;;;;;;;3.23;2.70;;;7.90;39.20;;;;;;10347600;28;20782;-75
2024/01/05 01:41:56;;;;;;;3.10;2.60;;;7.80;39.10;;;;;;10348446;28;20280;-75
2024/01/05 01:47:01;;;;;;;2.70;2.23;;;7.70;39.00;;;;;;10348285;28;20233;-75
2024/01/05 01:52:05;;;;;;;2.47;2.07;;;7.70;39.50;;;;;;10341724;28;20233;-75
2024/01/05 01:57:08;;;;;;;2.50;2.00;;;7.70;39.30;;;;;;10350607;28;20631;-75
2024/01/05 02:02:13;;;;;;;3.70;2.30;;;7.70;39.00;;;;;;10346429;28;20249;-75
2024/01/05 02:07:16;;;;;;;3.80;1.93;;;7.60;39.40;;;;;;10345787;28;20309;-75
2024/01/05 02:12:20;;;;;;;3.47;2.23;;;7.60;39.50;;;;;;10343892;28;20230;-75
2024/01/05 02:17:32;;;;;;;3.03;2.20;;;7.60;39.40;;;;;;10349186;28;20234;-75
2024/01/05 02:22:39;;;;;;;3.37;1.97;;;7.50;40.00;;;;;;10346222;28;20721;-75
2024/01/05 02:27:44;;;;;;;2.97;2.10;;;7.60;39.60;;;;;;10345610;28;20269;-75
2024/01/05 02:32:47;;;;;;;2.43;1.87;;;7.50;39.70;;;;;;10343542;28;20238;-75
2024/01/05 02:37:51;;;;;;;3.37;2.07;;;7.70;39.30;;;;;;10340895;28;20233;-75
2024/01/05 02:42:55;;;;;;;2.20;2.00;;;7.70;39.10;;;;;;10345400;28;20241;-75
2024/01/05 02:47:58;;;;;;;3.10;2.00;;;7.70;39.10;;;;;;10346728;28;20305;-75
2024/01/05 02:53:02;;;;;;;2.43;2.13;;;7.70;39.00;;;;;;10346342;28;20267;-75
2024/01/05 02:58:06;;;;;;;2.93;2.13;;;7.60;38.90;;;;;;10350293;28;20957;-75
2024/01/05 03:03:09;;;;;;;3.50;2.00;;;7.40;39.20;;;;;;10350811;28;20336;-75
2024/01/05 03:08:13;;;;;;;2.73;2.00;;;7.30;39.50;;;;;;10351878;28;20218;-75
2024/01/05 03:13:17;;;;;;;3.00;2.60;;;7.30;39.50;;;;;;10353472;28;20236;-75
2024/01/05 03:18:21;;;;;;;3.23;2.60;;;7.20;39.50;;;;;;10348642;28;20304;-75
2024/01/05 03:23:24;;;;;;;2.33;2.13;;;7.10;39.50;;;;;;10348759;28;20245;-75
2024/01/05 03:28:28;;;;;;;4.23;2.53;;;7.00;39.40;;;;;;10351002;28;20237;-75
2024/01/05 03:33:31;;;;;;;3.27;2.53;;;7.00;39.60;;;;;;10346718;28;20713;-75
2024/01/05 03:38:35;;;;;;;2.77;2.20;;;6.90;39.50;;;;;;10347894;28;20230;-75
2024/01/05 03:43:39;;;;;;;2.30;2.10;;;6.80;39.60;;;;;;10354018;28;20238;-75
2024/01/05 03:48:43;;;;;;;3.03;2.23;;;6.80;40.00;;;;;;10355476;28;20238;-75
2024/01/05 03:53:47;;;;;;;3.00;2.30;;;6.90;39.80;;;;;;10357511;28;20257;-75
2024/01/05 03:58:51;;;;;;;4.23;2.33;;;6.90;39.60;;;;;;10355579;28;20245;-75
2024/01/05 04:03:54;;;;;;;2.87;2.07;;;6.80;39.60;;;;;;10353462;28;20237;-75
2024/01/05 04:08:58;;;;;;;3.33;2.17;;;6.70;39.60;;;;;;10348726;28;20329;-75
2024/01/05 04:14:02;;;;;;;3.07;2.00;;;6.70;39.90;;;;;;10351888;28;20234;-75
2024/01/05 04:19:06;;;;;;;2.87;2.20;;;6.70;40.00;;;;;;10346088;28;20227;-75
2024/01/05 04:24:09;;;;;;;2.57;2.10;;;6.70;39.90;;;;;;10350208;28;20305;-75
2024/01/05 04:29:14;;;;;;;2.00;1.80;;;6.70;40.00;;;;;;10348067;28;20724;-75
2024/01/05 04:34:17;;;;;;;2.83;2.13;;;6.70;40.30;;;;;;10345255;28;20301;-75
2024/01/05 04:39:21;;;;;;;2.00;1.70;;;6.70;40.20;;;;;;10348770;28;20230;-75
2024/01/05 04:44:26;;;;;;;2.33;1.83;;;6.80;40.10;;;;;;10353961;28;20226;-75
2024/01/05 04:49:31;;;;;;;2.50;2.00;;;6.80;40.20;;;;;;10333045;28;20322;-75
2024/01/05 04:54:35;;;;;;;2.90;2.20;;;6.80;40.00;;;;;;10329808;28;20227;-75
2024/01/05 04:59:41;;;;;;;2.20;2.00;;;6.70;40.20;;;;;;10328622;28;20231;-75
2024/01/05 05:04:44;;;;;;;3.97;2.03;;;6.70;40.40;;;;;;10316712;28;20237;-75
2024/01/05 05:09:50;;;;;;;3.70;2.10;;;6.70;40.30;;;;;;10354105;28;20242;-75
2024/01/05 05:14:54;;;;;;;2.57;1.80;;;6.70;40.10;;;;;;10323831;28;20227;-75
2024/01/05 05:19:58;;;;;;;4.37;3.10;;;6.70;40.10;;;;;;10298673;28;20234;-75
2024/01/05 05:25:01;;;;;;;3.73;2.50;;;6.60;40.00;;;;;;10345524;28;20309;-75
2024/01/05 05:30:10;;;;;;;2.80;1.87;;;6.60;40.00;;;;;;10346790;28;20289;-75
2024/01/05 05:35:13;;;;;;;2.57;2.07;;;6.50;40.50;;;;;;10346717;28;20322;-75
2024/01/05 05:40:16;;;;;;;2.63;1.97;;;6.50;40.40;;;;;;10340113;28;20634;-75
2024/01/05 05:45:21;;;;;;;6.57;5.17;;;6.50;40.30;;;;;;10346538;28;20752;-75
2024/01/05 05:50:24;;;;;;;4.43;3.10;;;6.50;40.40;;;;;;10345929;28;20226;-75
2024/01/05 05:55:27;;;;;;;3.40;2.50;;;6.40;40.30;;;;;;10349268;28;20224;-75
2024/01/05 06:00:32;;;;;;;3.63;2.30;;;6.40;40.60;;;;;;10340412;28;20236;-75
2024/01/05 06:05:36;;;;;;;3.70;3.30;;;6.40;40.90;;;;;;10347327;28;20223;-75
2024/01/05 06:10:40;;;;;;;3.10;2.80;;;6.50;40.90;;;;;;10345642;28;20279;-75
2024/01/05 06:15:44;;;;;;;4.07;3.07;;;6.50;40.60;;;;;;10348731;28;20701;-75
2024/01/05 06:20:47;;;;;;;4.27;3.10;;;6.60;40.60;;;;;;10350754;28;20222;-75
2024/01/05 06:25:51;;;;;;;3.43;2.57;;;6.70;40.30;;;;;;10346420;28;20743;-75
2024/01/05 06:30:55;;;;;;;2.47;2.17;;;6.70;40.30;;;;;;10348647;28;20321;-76
2024/01/05 06:35:58;;;;;;;2.90;2.70;;;6.70;40.30;;;;;;10343643;28;20222;-76
2024/01/05 06:41:02;;;;;;;4.03;2.70;;;6.70;40.20;;;;;;10343857;28;20320;-76
2024/01/05 06:46:06;;;;;;;4.13;3.00;;;6.80;40.00;;;;;;10344712;28;20228;-76
2024/01/05 06:51:09;;;;;;;3.03;2.70;;;6.70;40.00;;;;;;10345063;28;20682;-75
2024/01/05 06:56:13;;;;;;;3.07;2.77;;;6.60;40.00;;;;;;10342674;28;20227;-76
2024/01/05 07:01:17;;;;;;;3.20;2.90;;;6.60;40.20;;;;;;10342527;28;20267;-76
2024/01/05 07:06:21;;;;;;;4.80;4.13;;;6.60;40.50;;;;;;10341673;28;20229;-76
2024/01/05 07:11:24;;;;;;;4.67;3.77;;;6.60;40.30;;;;;;10343187;28;20234;-76
2024/01/05 07:16:29;;;;;;;4.30;3.90;;;6.60;40.20;;;;;;10347214;28;20619;-76
2024/01/05 07:21:33;;;;;;;4.10;3.80;;;6.60;40.20;;;;;;10342863;28;20321;-76
2024/01/05 07:26:36;;;;;;;3.37;3.17;;;6.60;40.10;;;;;;10343781;28;20245;-76
2024/01/05 07:31:45;;;;;;;3.43;3.07;;;6.60;40.10;;;;;;10342758;28;20235;-76
2024/01/05 07:36:48;;;;;;;5.77;3.00;;;6.40;40.40;;;;;;10343833;28;20706;-76
2024/01/05 07:41:51;;;;;;;8.23;2.70;;;6.20;40.50;;;;;;10347714;28;20232;-76
2024/01/05 07:46:56;;;;;;;3.47;3.03;;;6.20;40.80;;;;;;10342720;28;20222;-76
2024/01/05 07:51:59;;;;;;;3.30;3.00;;;6.20;41.10;;;;;;10352828;28;20229;-76
2024/01/05 07:57:02;;;;;;;4.27;2.60;;;6.20;40.80;;;;;;10353528;28;20222;-76
2024/01/05 08:02:07;;;;;;;2.80;2.47;;;6.20;40.70;;;;;;10350279;28;20231;-76
2024/01/05 08:07:12;;;;;;;4.10;3.70;;;6.30;41.10;;;;;;10351111;28;20318;-76
2024/01/05 08:12:15;;;;;;;4.57;3.70;;;6.40;40.80;;;;;;10345559;28;20321;-76
2024/01/05 08:17:21;;;;;;;3.80;3.40;;;6.40;40.90;;;;;;10352650;28;20282;-76
2024/01/05 08:22:25;;;;;;;6.23;5.37;;;6.50;41.10;;;;;;10349797;28;20226;-76
2024/01/05 08:27:28;;;;;;;18.47;16.53;;;6.60;41.00;;;;;;10351413;28;20230;-76
2024/01/05 08:32:34;;;;;;;9.63;7.67;;;6.70;40.80;;;;;;10352252;28;20226;-76
2024/01/05 08:37:37;;;;;;;7.83;6.97;;;6.70;40.80;;;;;;10346269;28;20235;-75
2024/01/05 08:42:42;;;;;;;9.77;7.63;;;6.70;40.70;;;;;;10347004;28;20628;-75
2024/01/05 08:47:46;;;;;;;9.87;8.67;;;6.80;41.00;;;;;;10350243;28;20222;-75
2024/01/05 08:52:49;;;;;;;9.60;8.30;;;6.80;41.10;;;;;;10345772;28;20233;-75
2024/01/05 08:57:52;;;;;;;10.33;8.30;;;6.90;41.00;;;;;;10346680;28;20743;-75
2024/01/05 09:02:57;;;;;;;8.77;7.87;;;7.00;40.90;;;;;;10350543;28;20761;-75
2024/01/05 09:08:00;;;;;;;13.37;11.23;;;7.10;41.10;;;;;;10345280;28;20251;-75
2024/01/05 09:13:04;;;;;;;8.33;7.23;;;7.10;40.90;;;;;;10342879;28;20318;-75
2024/01/05 09:18:08;;;;;;;7.40;5.50;;;7.10;40.90;;;;;;10348761;28;20233;-75
2024/01/05 09:23:13;;;;;;;6.37;4.37;;;7.10;41.00;;;;;;10343231;28;20258;-75
2024/01/05 09:28:16;;;;;;;5.67;4.40;;;7.10;40.80;;;;;;10341643;28;20233;-75
2024/01/05 09:33:21;;;;;;;5.43;3.60;;;7.20;40.80;;;;;;10348440;28;20240;-75
2024/01/05 09:38:24;;;;;;;4.90;3.73;;;7.20;40.90;;;;;;10345134;28;20300;-75
2024/01/05 09:43:27;;;;;;;3.67;3.37;;;7.10;40.70;;;;;;10338367;28;20709;-75
2024/01/05 09:48:32;;;;;;;4.57;3.60;;;7.10;41.00;;;;;;10337641;28;20241;-75
2024/01/05 09:53:46;;;;;;;4.20;3.80;;;7.10;41.40;;;;;;10343442;28;20230;-75
2024/01/05 09:58:52;;;;;;;4.37;3.97;;;7.10;41.30;;;;;;10342791;28;20229;-75
2024/01/05 10:03:58;;;;;;;4.73;3.80;;;7.20;41.80;;;;;;10344369;28;20329;-75
2024/01/05 10:09:02;;;;;;;5.07;3.30;;;7.40;41.80;;;;;;10344734;28;20341;-75
2024/01/05 10:14:08;;;;;;;4.03;3.00;;;7.50;41.40;;;;;;10342959;28;20234;-75
2024/01/05 10:19:14;;;;;;;8.17;4.97;;;7.70;41.50;;;;;;10345042;28;20230;-75
2024/01/05 10:24:22;;;;;;;7.63;6.47;;;7.80;41.60;;;;;;10341754;28;20227;-75
2024/01/05 10:29:26;;;;;;;4.77;3.93;;;8.00;41.40;;;;;;10344324;28;20309;-75
2024/01/05 10:34:35;;;;;;;3.80;3.50;;;8.10;41.20;;;;;;10340107;28;20241;-75
2024/01/05 10:39:39;;;;;;;3.40;2.67;;;8.30;41.30;;;;;;10340749;28;20260;-75
2024/01/05 10:44:45;;;;;;;3.83;2.80;;;8.40;41.30;;;;;;10344998;28;20257;-75
2024/01/05 10:49:50;;;;;;;3.90;3.07;;;8.50;41.30;;;;;;10340513;28;20729;-76
2024/01/05 10:54:54;;;;;;;6.23;3.80;;;8.60;41.00;;;;;;10341873;28;20736;-75
2024/01/05 10:59:58;;;;;;;3.43;3.13;;;8.70;41.10;;;;;;10342170;28;20300;-76
2024/01/05 11:05:08;;;;;;;3.40;2.90;;;8.90;41.20;;;;;;10344442;28;20720;-76
2024/01/05 11:10:28;;;;;;;3.57;3.20;;;9.00;41.20;;;;;;10345176;28;20222;-75
2024/01/05 11:15:52;;;;;;;3.93;2.57;;;9.10;40.90;;;;;;10346408;28;20261;-75
2024/01/05 11:21:11;;;;;;;4.13;2.40;;;9.30;40.50;;;;;;10348401;28;20236;-75
2024/01/05 11:26:31;;;;;;;2.50;2.23;;;9.30;40.70;;;;;;10353419;28;20692;-75
2024/01/05 11:31:58;;;;;;;3.43;2.60;;;9.40;40.40;;;;;;10351383;28;20242;-75
2024/01/05 11:37:04;;;;;;;3.93;2.73;;;9.50;41.00;;;;;;10330653;28;20298;-76
2024/01/05 11:42:08;;;;;;;3.70;2.83;;;9.60;40.60;;;;;;10348815;28;20219;-76
2024/01/05 11:47:11;;;;;;;3.70;2.50;;;9.80;40.70;;;;;;10345428;28;20229;-76
2024/01/05 11:52:15;;;;;;;2.97;2.57;;;9.80;40.70;;;;;;10350462;28;20245;-76
2024/01/05 11:57:20;;;;;;;3.17;2.60;;;9.90;40.80;;;;;;10347903;28;20225;-76
2024/01/05 12:02:25;;;;;;;3.57;2.40;;;10.00;39.90;;;;;;10357083;28;20238;-76
2024/01/05 12:07:30;;;;;;;4.80;2.77;;;10.10;40.00;;;;;;10353732;28;20222;-76
2024/01/05 12:12:33;;;;;;;3.00;2.53;;;10.10;40.00;;;;;;10352485;28;20321;-76
2024/01/05 12:17:37;;;;;;;3.90;2.80;;;10.20;39.90;;;;;;10349015;28;20223;-76
2024/01/05 12:22:45;;;;;;;4.80;3.10;;;10.30;40.20;;;;;;10348170;28;20238;-76
2024/01/05 12:27:48;;;;;;;4.87;2.97;;;10.30;39.80;;;;;;10349604;28;20722;-76
2024/01/05 12:32:52;;;;;;;2.90;2.57;;;10.40;39.80;;;;;;10350821;28;20238;-76
2024/01/05 12:37:57;;;;;;;3.40;3.10;;;10.40;39.70;;;;;;10346171;28;20234;-76
2024/01/05 12:43:01;;;;;;;3.20;2.73;;;10.40;39.40;;;;;;10352619;28;20222;-75
2024/01/05 12:48:11;;;;;;;5.03;3.10;;;10.50;39.60;;;;;;10349035;28;20226;-76
2024/01/05 12:53:20;;;;;;;5.33;4.73;;;10.50;39.30;;;;;;10350334;28;20234;-76
2024/01/05 12:58:23;;;;;;;3.40;3.10;;;10.60;39.30;;;;;;10350108;28;20257;-76
2024/01/05 13:03:27;;;;;;;3.90;2.90;;;10.70;39.50;;;;;;10346926;28;20292;-76
2024/01/05 13:08:34;;;;;;;2.87;2.57;;;10.80;39.30;;;;;;10346832;28;20251;-76
2024/01/05 13:13:38;;;;;;;4.83;3.73;;;10.90;38.80;;;;;;10346460;28;20235;-76
2024/01/05 13:18:41;;;;;;;3.53;2.50;;;11.00;39.10;;;;;;10349146;28;20239;-76
2024/01/05 13:23:47;;;;;;;3.27;2.07;;;11.00;38.80;;;;;;10343865;28;20234;-76
2024/01/05 13:28:51;;;;;;;6.40;3.27;;;11.10;38.70;;;;;;10347620;28;20326;-76
2024/01/05 13:33:55;;;;;;;12.50;8.67;;;11.10;38.70;;;;;;10349579;28;20236;-76
2024/01/05 13:39:00;;;;;;;4.73;3.77;;;11.20;38.90;;;;;;10346724;28;20454;-76
2024/01/05 13:44:04;;;;;;;5.23;2.87;;;11.20;38.50;;;;;;10345255;28;20647;-76
2024/01/05 13:49:07;;;;;;;6.10;3.67;;;11.20;38.70;;;;;;10344508;28;20226;-76
2024/01/05 13:54:12;;;;;;;6.13;3.97;;;11.20;38.50;;;;;;10348641;28;20225;-76
2024/01/05 13:59:15;;;;;;;4.93;3.13;;;11.30;38.50;;;;;;10345712;28;20701;-76
2024/01/05 14:04:18;;;;;;;11.03;6.53;;;11.30;38.60;;;;;;10343361;28;20421;-76
2024/01/05 14:09:22;;;;;;;40.93;23.10;;;11.30;38.50;;;;;;10344504;28;20230;-75
2024/01/05 14:14:26;;;;;;;25.93;14.77;;;11.30;38.30;;;;;;10343626;28;20234;-76
2024/01/05 14:19:29;;;;;;;11.80;7.73;;;11.30;38.40;;;;;;10343476;28;20233;-76
2024/01/05 14:24:34;;;;;;;8.30;5.83;;;11.30;38.40;;;;;;10343137;28;20238;-76
2024/01/05 14:29:38;;;;;;;5.80;4.80;;;11.20;38.20;;;;;;10363547;28;20296;-73
2024/01/05 14:34:42;;;;;;;6.80;6.07;;;11.30;38.40;;;;;;10365239;28;20698;-74
2024/01/05 14:39:47;;;;;;;4.60;4.20;;;11.20;38.20;;;;;;10365459;28;20560;-74
2024/01/05 14:44:50;;;;;;;7.50;5.30;;;11.20;38.30;;;;;;10365428;28;20313;-73
2024/01/05 14:49:53;;;;;;;7.23;5.40;;;11.20;38.40;;;;;;10364973;28;20237;-73
2024/01/05 14:54:59;;;;;;;5.70;5.10;;;11.20;38.40;;;;;;10365111;28;20246;-74
2024/01/05 15:00:03;;;;;;;5.67;5.03;;;11.10;38.30;;;;;;10364189;28;20250;-74
2024/01/05 15:05:07;;;;;;;11.53;5.90;;;11.10;38.60;;;;;;10364898;28;20847;-73
2024/01/05 15:10:12;;;;;;;5.97;5.27;;;11.10;38.60;;;;;;10364745;28;20712;-74
2024/01/05 15:15:15;;;;;;;5.23;4.53;;;11.10;38.80;;;;;;10364253;28;20238;-73
2024/01/05 15:20:19;;;;;;;4.70;4.20;;;11.10;38.70;;;;;;10364375;28;20238;-74
2024/01/05 15:25:23;;;;;;;4.40;3.40;;;11.10;38.70;;;;;;10364393;28;20725;-74
2024/01/05 15:30:27;;;;;;;4.30;3.87;;;11.10;38.70;;;;;;10364091;28;20317;-74
2024/01/05 15:35:33;;;;;;;6.17;4.20;;;11.10;38.60;;;;;;10364146;28;20242;-74
2024/01/05 15:40:37;;;;;;;6.87;6.20;;;11.10;38.70;;;;;;10364119;28;20246;-74
2024/01/05 15:45:41;;;;;;;8.97;7.37;;;11.10;38.60;;;;;;10364114;28;20261;-73
2024/01/05 15:50:44;;;;;;;12.87;10.43;;;11.20;38.70;;;;;;10364028;28;20316;-74
2024/01/05 15:55:48;;;;;;;6.80;6.10;;;11.10;38.50;;;;;;10363798;28;20235;-74
2024/01/05 16:01:01;;;;;;;6.10;5.40;;;11.10;38.50;;;;;;10363631;28;20234;-74
2024/01/05 16:06:09;;;;;;;12.37;9.17;;;11.10;38.60;;;;;;10363517;28;20314;-74
2024/01/05 16:11:13;;;;;;;9.23;7.47;;;11.00;38.60;;;;;;10366633;28;20357;-74
2024/01/05 16:16:17;;;;;;;9.17;7.93;;;11.00;38.60;;;;;;10369721;28;20312;-74
2024/01/05 16:21:26;;;;;;;9.60;8.57;;;11.00;38.70;;;;;;10375186;28;20246;-74
2024/01/05 16:26:31;;;;;;;9.10;6.80;;;11.00;38.70;;;;;;10370506;28;20669;-74
2024/01/05 16:31:34;;;;;;;8.13;6.37;;;11.00;38.70;;;;;;10369908;28;20317;-74
2024/01/05 16:36:38;;;;;;;6.83;6.13;;;10.90;38.80;;;;;;10369808;28;20296;-74
2024/01/05 16:41:42;;;;;;;7.87;6.27;;;11.00;38.90;;;;;;10369509;28;20242;-74
2024/01/05 16:46:45;;;;;;;8.27;6.63;;;11.00;39.00;;;;;;10369430;28;20250;-74
2024/01/05 16:51:48;;;;;;;7.87;7.07;;;11.00;38.90;;;;;;10369238;28;20317;-74
2024/01/05 16:56:53;;;;;;;7.90;7.10;;;11.00;38.80;;;;;;10369062;28;20316;-74
2024/01/05 17:01:56;;;;;;;8.67;6.93;;;11.00;38.80;;;;;;10368637;28;20792;-74
2024/01/05 17:07:00;;;;;;;7.03;6.23;;;11.10;38.90;;;;;;10368574;28;20662;-74
2024/01/05 17:12:05;;;;;;;8.27;7.47;;;11.00;38.80;;;;;;10368386;28;20234;-74
2024/01/05 17:17:09;;;;;;;9.80;6.27;;;11.10;38.80;;;;;;10368304;28;20304;-74
2024/01/05 17:22:12;;;;;;;5.97;5.37;;;11.00;38.70;;;;;;10367663;28;20309;-74
2024/01/05 17:27:17;;;;;;;5.20;4.70;;;11.00;38.60;;;;;;10368003;28;20309;-74
2024/01/05 17:32:20;;;;;;;5.00;4.17;;;11.00;38.60;;;;;;10367661;28;20262;-74
2024/01/05 17:37:23;;;;;;;6.97;5.03;;;11.00;38.60;;;;;;10367395;28;20240;-74
2024/01/05 17:42:28;;;;;;;6.20;4.90;;;11.00;38.60;;;;;;10367408;28;20238;-74
2024/01/05 17:47:32;;;;;;;6.97;5.17;;;10.90;38.70;;;;;;10367074;28;20262;-74
2024/01/05 17:52:35;;;;;;;7.33;5.53;;;10.90;38.60;;;;;;10366570;28;20286;-74
2024/01/05 17:57:41;;;;;;;6.07;5.47;;;10.90;38.50;;;;;;10365565;28;20309;-74
2024/01/05 18:02:44;;;;;;;7.27;5.93;;;10.80;38.50;;;;;;10360121;28;20724;-74
2024/01/05 18:07:50;;;;;;;9.20;6.40;;;10.80;38.50;;;;;;10362379;28;20244;-74
2024/01/05 18:12:56;;;;;;;7.67;6.30;;;10.70;38.50;;;;;;10359060;28;20224;-74
2024/01/05 18:17:59;;;;;;;8.77;7.47;;;10.70;38.70;;;;;;10359391;28;20218;-74
2024/01/05 18:23:02;;;;;;;10.70;8.77;;;10.60;38.60;;;;;;10358341;28;20234;-74
2024/01/05 18:28:07;;;;;;;9.43;8.10;;;10.60;38.60;;;;;;10359860;28;20305;-74
2024/01/05 18:33:10;;;;;;;12.67;9.33;;;10.60;38.70;;;;;;10355085;28;20276;-74
2024/01/05 18:38:14;;;;;;;13.90;8.70;;;10.60;38.90;;;;;;10350874;28;20222;-74
2024/01/05 18:43:18;;;;;;;10.57;8.60;;;10.60;38.90;;;;;;10361324;28;20227;-74
2024/01/05 18:48:22;;;;;;;8.57;7.67;;;10.60;39.00;;;;;;10360089;28;20257;-74
2024/01/05 18:53:25;;;;;;;9.93;8.10;;;10.50;38.90;;;;;;10356578;28;20245;-74
2024/01/05 18:58:29;;;;;;;13.70;9.33;;;10.50;38.90;;;;;;10352697;28;20779;-74
2024/01/05 19:03:33;;;;;;;10.17;7.57;;;10.50;39.00;;;;;;10358655;28;20309;-74
2024/01/05 19:08:37;;;;;;;8.77;7.80;;;10.50;38.90;;;;;;10361498;28;20253;-74
2024/01/05 19:13:42;;;;;;;10.43;7.57;;;10.50;39.10;;;;;;10361667;28;20242;-74
2024/01/05 19:18:45;;;;;;;12.90;11.37;;;10.50;39.20;;;;;;10358774;28;20232;-74
2024/01/05 19:23:48;;;;;;;11.73;10.53;;;10.40;39.10;;;;;;10353626;28;20543;-74
2024/01/05 19:28:53;;;;;;;11.07;9.97;;;10.40;39.80;;;;;;10355605;28;20223;-74
2024/01/05 19:33:56;;;;;;;13.50;10.53;;;10.30;39.30;;;;;;10355942;28;20234;-74
2024/01/05 19:38:59;;;;;;;14.93;13.30;;;10.20;39.30;;;;;;10348760;28;20325;-72
2024/01/05 19:44:04;;;;;;;12.23;10.93;;;10.10;39.50;;;;;;10360216;28;20895;-74
2024/01/05 19:49:07;;;;;;;17.63;13.83;;;10.10;40.00;;;;;;10366721;28;20285;-74
2024/01/05 19:54:11;;;;;;;15.53;13.87;;;10.00;39.90;;;;;;10367138;28;20261;-74
2024/01/05 19:59:16;;;;;;;15.93;13.47;;;10.00;39.90;;;;;;10366966;28;20246;-74
2024/01/05 20:04:20;;;;;;;14.93;13.33;;;10.00;40.60;;;;;;10366284;28;20224;-75
2024/01/05 20:09:24;;;;;;;18.50;13.93;;;10.00;39.90;;;;;;10363438;28;20230;-74
2024/01/05 20:14:28;;;;;;;14.87;12.00;;;10.10;40.10;;;;;;10365177;28;20230;-74
2024/01/05 20:19:33;;;;;;;14.03;12.57;;;10.10;40.00;;;;;;10362953;28;20266;-74
2024/01/05 20:24:36;;;;;;;15.37;12.50;;;10.10;40.00;;;;;;10366621;28;20253;-72
2024/01/05 20:29:41;;;;;;;14.00;12.53;;;10.20;40.10;;;;;;10361803;28;20242;-74
2024/01/05 20:34:46;;;;;;;11.33;10.13;;;10.20;40.20;;;;;;10357943;28;20705;-74
2024/01/05 20:39:49;;;;;;;12.87;10.93;;;10.20;40.10;;;;;;10363845;28;20234;-74
2024/01/05 20:44:53;;;;;;;12.53;11.27;;;10.20;40.10;;;;;;10356760;28;20219;-74
2024/01/05 20:49:57;;;;;;;18.23;14.97;;;10.20;40.10;;;;;;10363120;28;20226;-74
2024/01/05 20:55:00;;;;;;;16.23;14.30;;;10.20;40.10;;;;;;10358129;28;20284;-74
2024/01/05 21:00:06;;;;;;;15.80;13.97;;;10.30;40.20;;;;;;10361386;28;20502;-74
2024/01/05 21:05:10;;;;;;;17.23;13.80;;;10.30;40.20;;;;;;10363466;28;20223;-74
2024/01/05 21:10:14;;;;;;;14.00;12.50;;;10.30;40.20;;;;;;10363400;28;20832;-74
2024/01/05 21:15:18;;;;;;;16.47;14.80;;;10.30;40.20;;;;;;10356691;28;20232;-74
2024/01/05 21:20:21;;;;;;;13.00;11.60;;;10.30;40.20;;;;;;10361734;28;20240;-74
2024/01/05 21:25:28;;;;;;;15.40;13.80;;;10.30;40.20;;;;;;10363325;28;20309;-74
2024/01/05 21:30:33;;;;;;;14.30;12.80;;;10.30;40.20;;;;;;10361906;28;20238;-74
2024/01/05 21:35:37;;;;;;;13.37;11.97;;;10.30;40.20;;;;;;10362843;28;20234;-74
2024/01/05 21:40:40;;;;;;;11.77;10.17;;;10.30;40.20;;;;;;10348048;28;20234;-74
2024/01/05 21:45:45;;;;;;;12.97;10.93;;;10.30;40.20;;;;;;10363755;28;20230;-74
2024/01/05 21:50:48;;;;;;;12.07;9.73;;;10.30;40.20;;;;;;10360839;28;20249;-74
2024/01/05 21:55:51;;;;;;;12.87;10.27;;;10.30;40.20;;;;;;10358646;28;20226;-74
2024/01/05 22:00:56;;;;;;;12.33;11.10;;;10.30;40.20;;;;;;10349666;28;20226;-74
2024/01/05 22:05:59;;;;;;;12.47;11.20;;;10.30;40.20;;;;;;10351727;28;20260;-74
2024/01/05 22:11:03;;;;;;;11.83;10.57;;;10.20;40.10;;;;;;10355733;28;20229;-73
2024/01/05 22:16:08;;;;;;;10.67;9.60;;;10.20;40.30;;;;;;10349642;28;20250;-74
2024/01/05 22:21:11;;;;;;;11.87;10.60;;;10.10;41.00;;;;;;10350796;28;20313;-74
2024/01/05 22:26:22;;;;;;;10.87;9.77;;;10.00;40.80;;;;;;10345543;28;20230;-74
2024/01/05 22:31:27;;;;;;;12.07;10.97;;;10.00;41.70;;;;;;10353152;28;20235;-74
2024/01/05 22:36:31;;;;;;;11.10;10.00;;;10.00;41.20;;;;;;10349166;28;20262;-74
2024/01/05 22:41:36;;;;;;;10.27;9.27;;;10.00;41.00;;;;;;10348336;28;20235;-74
2024/01/05 22:46:40;;;;;;;9.07;8.17;;;10.00;41.00;;;;;;10348796;28;20309;-74
2024/01/05 22:51:43;;;;;;;10.03;9.13;;;10.00;41.50;;;;;;10349877;28;20240;-74
2024/01/05 22:56:47;;;;;;;10.30;9.23;;;10.00;41.20;;;;;;10350936;28;20798;-74
2024/01/05 23:01:55;;;;;;;10.27;9.27;;;10.00;41.30;;;;;;10353387;28;20231;-74
2024/01/05 23:06:58;;;;;;;8.47;7.67;;;10.00;42.00;;;;;;10350388;28;20221;-74
2024/01/05 23:12:01;;;;;;;9.17;8.27;;;10.00;41.30;;;;;;10353611;28;20751;-74
2024/01/05 23:17:06;;;;;;;9.70;8.70;;;10.10;41.40;;;;;;10347592;28;20309;-74
2024/01/05 23:22:09;;;;;;;9.20;8.23;;;10.10;41.70;;;;;;10360536;28;20852;-74
2024/01/05 23:27:13;;;;;;;10.80;9.73;;;10.10;41.40;;;;;;10352587;28;20229;-74
2024/01/05 23:32:17;;;;;;;10.10;9.10;;;10.10;41.40;;;;;;10356838;28;20639;-74
2024/01/05 23:37:21;;;;;;;10.43;9.17;;;10.10;41.60;;;;;;10353608;28;20223;-74
2024/01/05 23:42:25;;;;;;;9.90;8.90;;;10.20;41.50;;;;;;10354497;28;20242;-74
2024/01/05 23:47:29;;;;;;;8.73;7.83;;;10.20;41.50;;;;;;10353472;28;20304;-74
2024/01/05 23:52:33;;;;;;;9.20;8.30;;;10.20;41.70;;;;;;10352364;28;20277;-74
2024/01/05 23:57:36;;;;;;;9.50;8.50;;;10.20;41.50;;;;;;10355903;28;20238;-74
